Dalton, WI

7:34 PM CDT on July 23, 2016 (GMT -0500)
Haertel | | Change Station

Elev 810 ft 43.55 °N, 89.47 °W | Updated 12 minutes ago

Light Rain
Light Rain
72.1 °F
Feels Like 72.1 °F
N
1.1
Wind Variable Wind from North

Today
High -- | Low -- °F
--% Chance of Precip.
Yesterday
High -- | Low -- °F
Precip. -- in
Pressure 29.90 in
Visibility 9.0 miles
Clouds Mostly Cloudy 300 ft
Mostly Cloudy 3000 ft
Overcast 10000 ft
Dew Point 72 °F
Humidity 99%
Rainfall 1.36 in
Snow Depth Not available.
5:37 AM 8:28 PM
Waning Gibbous, 81% visible
SPECI KY50 240027Z AUTO 16005KT 9SM -RA BKN003 BKN030 OVC100 23/22 A2990 RMK AO2 P0001
Pressure 29.90 in
Visibility 9.0 miles
Clouds Mostly Cloudy 300 ft
Mostly Cloudy 3000 ft
Overcast 10000 ft
Dew Point 72 °F
Humidity 99%
Rainfall 1.36 in
Snow Depth Not available.
5:37 AM 8:28 PM
Waning Gibbous, 81% visible
SPECI KY50 240027Z AUTO 16005KT 9SM -RA BKN003 BKN030 OVC100 23/22 A2990 RMK AO2 P0001

10-Day Weather Forecast

Almanac

Astronomy

Jul. 23, 2016 Rise Set
Actual Time
Civil Twilight
Nautical Twilight
Astronomical Twilight
Moon
Length of Visible Light
Length of Day
Tomorrow will be .
, % of the Moon is Illuminated

Today's Extremes

State Highs State Lows

Community

WunderPhotos

Upload Photos

1,926,982 photos uploaded!

WunderBlog® & News

Nearby

Air Quality

  Air Quality AQ Index Pollutant
Not available.

Snow Depth

Station Depth Elevation

Earthquake Activity

City Distance Mag. Time & Date
Minimum magnitude displayed is 2.5.

Coastal Water Temperatures

Place Temperature

Stations

Nearby Weather Stations

Station Location Temp. Windchill Dew Point Humidity Wind Precip. Elev Updated Type
                   

Watches & Warnings

There are currently no watches in effect.